Time;durP1;ratioP1;P1;durP2;ratioP2;P2;SDS_P1;SDS_P2;PMS_P1;PMS_P2;Temp;Humidity;BMP_temperature;BMP_pressure;BME280_temperature;BME280_humidity;BME280_pressure;Samples;Min_cycle;Max_cycle;Signal;HPM_P1;HPM_P2
2022/04/25 00:01:49;;;;;;;;;;;18.80;58.50;;;;;;5012556;28;1957;-72
2022/04/25 00:04:14;;;;;;;;;;;18.80;58.50;;;;;;5013054;28;1357;-71
2022/04/25 00:06:40;;;;;;;;;;;18.80;58.50;;;;;;4995389;28;1309;-72
2022/04/25 00:09:05;;;;;;;;;;;18.80;58.50;;;;;;5010702;28;1334;-71
2022/04/25 00:11:31;;;;;;;;;;;18.80;58.50;;;;;;4995213;28;1383;-70
2022/04/25 00:13:56;;;;;;;;;;;18.80;58.50;;;;;;5012618;28;1102;-71
2022/04/25 00:16:21;;;;;;;;;;;18.80;58.50;;;;;;5012985;28;1367;-70
2022/04/25 00:18:48;;;;;;;;;;;18.80;58.50;;;;;;5002348;28;1327;-70
2022/04/25 00:21:14;;;;;;;;;;;18.80;58.60;;;;;;5012702;28;1907;-71
2022/04/25 00:23:39;;;;;;;;;;;18.80;58.60;;;;;;5012230;28;1264;-71
2022/04/25 00:26:06;;;;;;;;;;;18.80;58.60;;;;;;5015869;28;1285;-70
2022/04/25 00:28:31;;;;;;;;;;;18.80;58.60;;;;;;4998178;28;1348;-70
2022/04/25 00:30:56;;;;;;;;;;;18.80;58.60;;;;;;5016620;28;1069;-71
2022/04/25 00:33:22;;;;;;;;;;;18.80;58.60;;;;;;4982745;28;1228;-70
2022/04/25 00:35:47;;;;;;;;;;;18.70;58.60;;;;;;5015232;28;1135;-70
2022/04/25 00:38:13;;;;;;;;;;;18.80;58.70;;;;;;5015378;28;1280;-71
2022/04/25 00:40:39;;;;;;;;;;;18.70;58.60;;;;;;4998777;28;1894;-70
2022/04/25 00:43:04;;;;;;;;;;;18.70;58.60;;;;;;4999303;28;950;-71
2022/04/25 00:45:36;;;;;;;;;;;18.70;58.70;;;;;;5016596;28;1342;-70
2022/04/25 00:48:01;;;;;;;;;;;18.80;58.70;;;;;;5015852;28;1217;-71
2022/04/25 00:50:27;;;;;;;;;;;18.70;58.70;;;;;;5029855;28;1337;-71
2022/04/25 00:52:53;;;;;;;;;;;18.70;58.70;;;;;;5035830;28;985;-70
2022/04/25 00:55:18;;;;;;;;;;;18.70;58.70;;;;;;5018326;28;1334;-69
2022/04/25 00:57:43;;;;;;;;;;;18.70;58.70;;;;;;5034278;28;1350;-70
2022/04/25 01:00:10;;;;;;;;;;;18.70;58.70;;;;;;5004797;28;1902;-71
2022/04/25 01:02:35;;;;;;;;;;;18.70;58.70;;;;;;5035979;28;1180;-71
2022/04/25 01:05:01;;;;;;;;;;;18.80;58.80;;;;;;5035857;28;1162;-71
2022/04/25 01:07:26;;;;;;;;;;;18.70;58.70;;;;;;5024916;28;1661;-70
2022/04/25 01:09:52;;;;;;;;;;;18.70;58.80;;;;;;4998431;28;1292;-71
2022/04/25 01:12:17;;;;;;;;;;;18.70;58.80;;;;;;4997889;28;1142;-71
2022/04/25 01:14:42;;;;;;;;;;;18.70;59.40;;;;;;5015870;28;1331;-71
2022/04/25 01:17:08;;;;;;;;;;;18.70;58.80;;;;;;4994226;28;1321;-71
2022/04/25 01:19:34;;;;;;;;;;;18.70;58.80;;;;;;5024079;28;1311;-71
2022/04/25 01:21:59;;;;;;;;;;;18.70;58.80;;;;;;5033959;28;1977;-70
2022/04/25 01:27:15;;;;;;;;;;;18.70;58.80;;;;;;5033808;28;1378;-70
2022/04/25 01:29:41;;;;;;;;;;;18.70;58.80;;;;;;5035371;28;1350;-71
2022/04/25 01:32:07;;;;;;;;;;;18.70;58.80;;;;;;5033982;28;1299;-71
2022/04/25 01:34:33;;;;;;;;;;;18.70;58.90;;;;;;5017136;28;1131;-71
2022/04/25 01:36:58;;;;;;;;;;;18.70;58.90;;;;;;5007843;28;1384;-67
2022/04/25 01:39:24;;;;;;;;;;;18.70;58.90;;;;;;5013758;28;1114;-70
2022/04/25 01:41:49;;;;;;;;;;;18.70;58.90;;;;;;4997631;28;1910;-71
2022/04/25 01:44:14;;;;;;;;;;;18.70;58.90;;;;;;5015318;28;1232;-71
2022/04/25 01:46:40;;;;;;;;;;;18.70;58.90;;;;;;5015418;28;1260;-70
2022/04/25 01:49:05;;;;;;;;;;;18.70;58.90;;;;;;5014519;28;1287;-70
2022/04/25 01:51:31;;;;;;;;;;;18.70;58.90;;;;;;4997555;28;1251;-70
2022/04/25 01:53:57;;;;;;;;;;;18.70;58.90;;;;;;4997587;28;1313;-71
2022/04/25 01:56:22;;;;;;;;;;;18.70;58.90;;;;;;5015497;28;1285;-71
2022/04/25 01:58:48;;;;;;;;;;;18.70;58.90;;;;;;5014610;28;1280;-70
2022/04/25 02:01:13;;;;;;;;;;;18.70;58.90;;;;;;5014970;28;1941;-70
2022/04/25 02:03:39;;;;;;;;;;;18.60;58.90;;;;;;5014572;28;1081;-71
2022/04/25 02:06:05;;;;;;;;;;;18.60;58.90;;;;;;5014998;28;1255;-71
2022/04/25 02:08:30;;;;;;;;;;;18.60;58.90;;;;;;5014110;28;1644;-69
2022/04/25 02:13:40;;;;;;;;;;;18.70;59.00;;;;;;5015142;28;1275;-70
2022/04/25 02:16:05;;;;;;;;;;;18.70;59.00;;;;;;5014745;28;1120;-70
2022/04/25 02:18:31;;;;;;;;;;;18.60;59.00;;;;;;5001966;28;1375;-70
2022/04/25 02:20:56;;;;;;;;;;;18.60;59.00;;;;;;5034218;28;1961;-70
2022/04/25 02:23:22;;;;;;;;;;;18.60;59.00;;;;;;5019489;28;1170;-71
2022/04/25 02:25:47;;;;;;;;;;;18.70;59.10;;;;;;5034589;28;1252;-70
2022/04/25 02:28:12;;;;;;;;;;;18.60;59.00;;;;;;5033451;28;1374;-70
2022/04/25 02:30:38;;;;;;;;;;;18.60;59.00;;;;;;5034106;28;1263;-70
2022/04/25 02:33:03;;;;;;;;;;;18.70;59.10;;;;;;5010001;28;1276;-70
2022/04/25 02:35:29;;;;;;;;;;;18.60;59.00;;;;;;5014408;28;1092;-70
2022/04/25 02:37:54;;;;;;;;;;;18.60;59.10;;;;;;5001467;28;1373;-70
2022/04/25 02:40:19;;;;;;;;;;;18.60;59.10;;;;;;5034539;28;1948;-70
2022/04/25 02:42:46;;;;;;;;;;;18.60;59.10;;;;;;5002954;28;1013;-70
2022/04/25 02:45:12;;;;;;;;;;;18.60;59.10;;;;;;5032767;28;1303;-70
2022/04/25 02:47:37;;;;;;;;;;;18.60;59.10;;;;;;5032565;28;1382;-70
2022/04/25 02:50:03;;;;;;;;;;;18.60;59.10;;;;;;5034161;28;1334;-70
2022/04/25 02:52:28;;;;;;;;;;;18.60;59.10;;;;;;5032512;28;1198;-69
2022/04/25 02:54:54;;;;;;;;;;;18.60;59.10;;;;;;5033658;28;1342;-69
2022/04/25 02:57:19;;;;;;;;;;;18.60;59.10;;;;;;5014685;28;1363;-70
2022/04/25 02:59:45;;;;;;;;;;;18.60;59.10;;;;;;5033672;28;1291;-69
2022/04/25 03:02:10;;;;;;;;;;;18.60;59.10;;;;;;5033655;28;1895;-70
2022/04/25 03:04:36;;;;;;;;;;;18.60;59.10;;;;;;5015551;28;1223;-70
2022/04/25 03:07:01;;;;;;;;;;;18.60;59.10;;;;;;5028152;28;1354;-70
2022/04/25 03:09:27;;;;;;;;;;;18.60;59.20;;;;;;5022874;28;1124;-70
2022/04/25 03:11:53;;;;;;;;;;;18.60;59.10;;;;;;5015635;28;1259;-70
2022/04/25 03:14:18;;;;;;;;;;;18.60;59.10;;;;;;5031628;28;1282;-70
2022/04/25 03:16:44;;;;;;;;;;;18.60;59.20;;;;;;5032867;28;1300;-70
2022/04/25 03:19:09;;;;;;;;;;;18.60;59.20;;;;;;5012908;28;1084;-70
2022/04/25 03:21:35;;;;;;;;;;;18.60;59.20;;;;;;4996017;28;1967;-69
2022/04/25 03:24:02;;;;;;;;;;;18.60;59.20;;;;;;5013382;28;1124;-69
2022/04/25 03:26:28;;;;;;;;;;;18.60;59.20;;;;;;5013322;28;1348;-70
2022/04/25 03:28:53;;;;;;;;;;;18.60;59.20;;;;;;4994683;28;1455;-70
2022/04/25 03:31:19;;;;;;;;;;;18.60;59.20;;;;;;4996029;28;1128;-70
2022/04/25 03:33:44;;;;;;;;;;;18.60;59.20;;;;;;5013153;28;1163;-70
2022/04/25 03:36:10;;;;;;;;;;;18.60;59.20;;;;;;4995636;28;1329;-70
2022/04/25 03:38:35;;;;;;;;;;;18.60;59.20;;;;;;5011061;28;1207;-70
2022/04/25 03:41:01;;;;;;;;;;;18.60;59.20;;;;;;5013142;28;1965;-70
2022/04/25 03:43:27;;;;;;;;;;;18.60;59.20;;;;;;5013055;28;1283;-70
2022/04/25 03:45:52;;;;;;;;;;;18.60;59.20;;;;;;4995543;28;1156;-70
2022/04/25 03:48:17;;;;;;;;;;;18.60;59.20;;;;;;4995050;28;1328;-70
2022/04/25 03:50:43;;;;;;;;;;;18.60;59.30;;;;;;4995275;28;1297;-70
2022/04/25 03:53:09;;;;;;;;;;;18.60;59.30;;;;;;5013147;28;1326;-70
2022/04/25 03:58:19;;;;;;;;;;;18.60;59.90;;;;;;5012813;28;1325;-69
2022/04/25 04:00:44;;;;;;;;;;;18.60;59.30;;;;;;4993728;28;1911;-70
2022/04/25 04:03:12;;;;;;;;;;;18.60;59.30;;;;;;4995422;28;1312;-70
2022/04/25 04:05:37;;;;;;;;;;;18.60;59.30;;;;;;5000153;28;1224;-70
2022/04/25 04:08:03;;;;;;;;;;;18.60;59.30;;;;;;5040981;23;3780;-69
2022/04/25 04:10:28;;;;;;;;;;;18.60;59.30;;;;;;5039825;28;1237;-69
2022/04/25 04:12:55;;;;;;;;;;;18.60;59.30;;;;;;5039960;28;1306;-69
2022/04/25 04:15:20;;;;;;;;;;;18.60;59.20;;;;;;5023103;28;1256;-69
2022/04/25 04:17:46;;;;;;;;;;;18.60;59.20;;;;;;5031124;28;1312;-69
2022/04/25 04:20:12;;;;;;;;;;;18.60;59.10;;;;;;5032744;28;1973;-69
2022/04/25 04:22:38;;;;;;;;;;;18.70;59.10;;;;;;5015338;28;1267;-69
2022/04/25 04:25:05;;;;;;;;;;;18.70;58.90;;;;;;5032811;28;1111;-69
2022/04/25 04:27:31;;;;;;;;;;;18.70;58.90;;;;;;5032311;28;1368;-69
2022/04/25 04:30:00;;;;;;;;;;;18.80;58.80;;;;;;5015275;28;1272;-69
2022/04/25 04:32:29;;;;;;;;;;;18.80;58.80;;;;;;5015044;28;1437;-69
2022/04/25 04:34:54;;;;;;;;;;;18.80;58.70;;;;;;5003554;28;1292;-69
2022/04/25 04:37:19;;;;;;;;;;;18.80;58.60;;;;;;5046395;28;1366;-69
2022/04/25 04:39:45;;;;;;;;;;;18.90;58.50;;;;;;5052342;28;1366;-69
2022/04/25 04:42:10;;;;;;;;;;;18.90;58.50;;;;;;5052340;28;1894;-69
2022/04/25 04:44:36;;;;;;;;;;;18.90;58.40;;;;;;5034508;28;1287;-69
2022/04/25 04:47:02;;;;;;;;;;;18.90;58.40;;;;;;5034494;28;1282;-69
2022/04/25 04:49:28;;;;;;;;;;;18.90;58.30;;;;;;5052451;28;1214;-69
2022/04/25 04:51:53;;;;;;;;;;;19.00;58.30;;;;;;5052414;28;1330;-69
2022/04/25 04:54:19;;;;;;;;;;;19.00;58.30;;;;;;5052284;28;1307;-69
2022/04/25 04:56:45;;;;;;;;;;;19.00;58.30;;;;;;5052379;28;1363;-69
2022/04/25 04:59:10;;;;;;;;;;;19.00;58.20;;;;;;5052126;28;1369;-69
2022/04/25 05:01:35;;;;;;;;;;;19.00;58.20;;;;;;5034524;28;1955;-69
2022/04/25 05:04:01;;;;;;;;;;;19.00;58.20;;;;;;5052337;28;1251;-69
2022/04/25 05:06:27;;;;;;;;;;;19.00;58.10;;;;;;5051815;28;1409;-69
2022/04/25 05:08:52;;;;;;;;;;;19.00;58.10;;;;;;5021460;28;1300;-69
2022/04/25 05:11:17;;;;;;;;;;;19.10;58.10;;;;;;5053759;28;1291;-69
2022/04/25 05:13:43;;;;;;;;;;;19.10;58.10;;;;;;5056081;28;1096;-69
2022/04/25 05:16:08;;;;;;;;;;;19.10;58.00;;;;;;5055950;28;1287;-70
2022/04/25 05:18:34;;;;;;;;;;;19.10;58.00;;;;;;5055397;28;1405;-69
2022/04/25 05:21:02;;;;;;;;;;;19.10;58.00;;;;;;5055821;28;1906;-69
2022/04/25 05:23:28;;;;;;;;;;;19.10;58.00;;;;;;5055738;28;1286;-69
2022/04/25 05:25:54;;;;;;;;;;;19.10;58.00;;;;;;5056016;28;1381;-69
2022/04/25 05:28:20;;;;;;;;;;;19.10;57.90;;;;;;5055341;28;1341;-69
2022/04/25 05:30:46;;;;;;;;;;;19.10;57.90;;;;;;5055664;28;1417;-69
2022/04/25 05:33:12;;;;;;;;;;;19.10;57.90;;;;;;5055509;28;1279;-69
2022/04/25 05:35:38;;;;;;;;;;;19.10;57.20;;;;;;5055596;28;1171;-69
2022/04/25 05:38:06;;;;;;;;;;;19.10;56.20;;;;;;5055106;28;1314;-69
2022/04/25 05:40:31;;;;;;;;;;;19.10;55.60;;;;;;5055358;28;1898;-69
2022/04/25 05:42:57;;;;;;;;;;;19.10;55.30;;;;;;5055362;28;1270;-69
2022/04/25 05:45:23;;;;;;;;;;;19.10;55.40;;;;;;5022000;28;1805;-67
2022/04/25 05:47:49;;;;;;;;;;;19.10;55.50;;;;;;5048240;28;1360;-67
2022/04/25 05:52:59;;;;;;;;;;;19.10;55.50;;;;;;5039292;28;1275;-66
2022/04/25 05:55:24;;;;;;;;;;;19.10;55.60;;;;;;5053821;28;1283;-67
2022/04/25 05:57:50;;;;;;;;;;;19.10;55.70;;;;;;5036111;28;1239;-69
2022/04/25 06:00:16;;;;;;;;;;;19.10;55.80;;;;;;5037392;28;1898;-68
2022/04/25 06:02:42;;;;;;;;;;;19.20;55.90;;;;;;5054810;28;1335;-69
2022/04/25 06:05:09;;;;;;;;;;;19.10;56.00;;;;;;5036644;28;1352;-67
2022/04/25 06:07:35;;;;;;;;;;;19.10;56.00;;;;;;5036632;28;1600;-68
2022/04/25 06:10:00;;;;;;;;;;;19.20;56.20;;;;;;5054860;28;1307;-68
2022/04/25 06:12:29;;;;;;;;;;;19.10;56.20;;;;;;5055311;28;1337;-68
2022/04/25 06:14:58;;;;;;;;;;;19.20;56.30;;;;;;5055232;28;1393;-68
2022/04/25 06:17:23;;;;;;;;;;;19.10;56.30;;;;;;5054465;28;1278;-69
2022/04/25 06:19:49;;;;;;;;;;;19.20;56.40;;;;;;5023163;28;1339;-69
2022/04/25 06:22:14;;;;;;;;;;;19.20;56.40;;;;;;5053823;28;1971;-67
2022/04/25 06:24:40;;;;;;;;;;;19.20;56.50;;;;;;5036718;28;1367;-68
2022/04/25 06:27:08;;;;;;;;;;;19.20;56.50;;;;;;5054458;28;1292;-69
2022/04/25 06:29:33;;;;;;;;;;;19.20;56.50;;;;;;5036898;28;1300;-69
2022/04/25 06:32:02;;;;;;;;;;;19.10;56.50;;;;;;5054468;28;1265;-69
2022/04/25 06:34:28;;;;;;;;;;;19.20;56.60;;;;;;5054003;28;1143;-69
2022/04/25 06:36:53;;;;;;;;;;;19.20;56.60;;;;;;5054356;28;1322;-68
2022/04/25 06:39:18;;;;;;;;;;;19.20;56.60;;;;;;5054129;28;1757;-69
2022/04/25 06:41:44;;;;;;;;;;;19.20;56.70;;;;;;5036369;28;1902;-67
2022/04/25 06:44:09;;;;;;;;;;;19.20;56.70;;;;;;5054165;28;1365;-68
2022/04/25 06:46:35;;;;;;;;;;;19.20;56.70;;;;;;5054273;28;1299;-67
2022/04/25 06:51:44;;;;;;;;;;;19.20;56.80;;;;;;5054319;28;1302;-67
2022/04/25 06:54:09;;;;;;;;;;;19.20;56.80;;;;;;5053798;28;1364;-67
2022/04/25 06:56:38;;;;;;;;;;;19.20;56.80;;;;;;5054112;28;1048;-67
2022/04/25 06:59:03;;;;;;;;;;;19.20;56.80;;;;;;5053589;28;2003;-66
2022/04/25 07:01:29;;;;;;;;;;;19.20;56.80;;;;;;5048660;28;1890;-67
2022/04/25 07:03:54;;;;;;;;;;;19.30;56.80;;;;;;5055593;28;1322;-67
2022/04/25 07:06:20;;;;;;;;;;;19.40;56.70;;;;;;5061118;28;1958;-67
2022/04/25 07:08:45;;;;;;;;;;;19.40;56.60;;;;;;5060986;28;1417;-67
2022/04/25 07:11:10;;;;;;;;;;;19.50;57.10;;;;;;5062785;28;1293;-67
2022/04/25 07:13:36;;;;;;;;;;;19.60;57.00;;;;;;5061419;28;1447;-67
2022/04/25 07:16:01;;;;;;;;;;;19.70;57.20;;;;;;5061859;28;1320;-67
2022/04/25 07:18:29;;;;;;;;;;;19.80;57.00;;;;;;5058801;28;1639;-67
2022/04/25 07:20:55;;;;;;;;;;;19.90;57.00;;;;;;5068677;28;1902;-67
2022/04/25 07:28:58;;;;;;;;;;;20.20;57.00;;;;;;5053245;28;1263;-67
2022/04/25 07:31:23;;;;;;;;;;;20.30;56.80;;;;;;5053503;28;1422;-67
2022/04/25 07:33:49;;;;;;;;;;;20.40;56.70;;;;;;5053283;28;1431;-67
2022/04/25 07:36:15;;;;;;;;;;;20.40;56.80;;;;;;5035659;28;1491;-67
2022/04/25 07:38:40;;;;;;;;;;;20.40;56.70;;;;;;5043471;28;1702;-67
2022/04/25 07:41:07;;;;;;;;;;;20.50;56.90;;;;;;5053100;28;1902;-67
2022/04/25 07:43:34;;;;;;;;;;;20.50;56.80;;;;;;5053405;28;1647;-67
2022/04/25 07:46:00;;;;;;;;;;;20.50;56.80;;;;;;5035714;28;1495;-67
2022/04/25 07:48:25;;;;;;;;;;;20.50;56.80;;;;;;5035086;28;1660;-67
2022/04/25 07:50:51;;;;;;;;;;;20.50;56.70;;;;;;5053300;28;1462;-67
2022/04/25 07:53:16;;;;;;;;;;;20.50;56.60;;;;;;5053287;28;1395;-67
2022/04/25 07:55:42;;;;;;;;;;;20.60;56.70;;;;;;5053092;28;1637;-67
2022/04/25 07:58:08;;;;;;;;;;;20.50;56.70;;;;;;5052903;28;1343;-67
2022/04/25 08:00:35;;;;;;;;;;;20.50;56.80;;;;;;5053021;28;1886;-66
2022/04/25 08:03:00;;;;;;;;;;;20.50;56.80;;;;;;5035289;28;1604;-67
2022/04/25 08:05:26;;;;;;;;;;;20.60;57.00;;;;;;5052862;28;1675;-67
2022/04/25 08:07:51;;;;;;;;;;;20.50;57.10;;;;;;5034202;28;1604;-67
2022/04/25 08:10:17;;;;;;;;;;;20.60;57.10;;;;;;5035024;28;1625;-67
2022/04/25 08:18:12;;;;;;;;;;;20.50;57.40;;;;;;5043545;28;1487;-67
2022/04/25 08:20:37;;;;;;;;;;;20.60;57.50;;;;;;5052706;28;1902;-67
2022/04/25 08:23:03;;;;;;;;;;;20.60;57.50;;;;;;5035026;28;1657;-67
2022/04/25 08:25:30;;;;;;;;;;;20.50;57.50;;;;;;5035072;28;1666;-67
2022/04/25 08:27:57;;;;;;;;;;;20.60;57.60;;;;;;5052600;28;1513;-67
2022/04/25 08:30:22;;;;;;;;;;;20.60;57.90;;;;;;5034965;28;1287;-67
2022/04/25 08:32:47;;;;;;;;;;;20.60;57.90;;;;;;5052892;28;1269;-67
2022/04/25 08:35:13;;;;;;;;;;;20.60;57.90;;;;;;5052758;28;1596;-67
2022/04/25 08:37:39;;;;;;;;;;;20.60;57.90;;;;;;5052512;28;1604;-67
2022/04/25 08:40:05;;;;;;;;;;;20.60;57.90;;;;;;5052710;28;862;-67
2022/04/25 08:42:31;;;;;;;;;;;20.60;57.90;;;;;;5052602;28;1894;-68
2022/04/25 08:44:57;;;;;;;;;;;20.60;57.90;;;;;;5034944;28;878;-67
2022/04/25 08:47:23;;;;;;;;;;;20.60;57.90;;;;;;5038190;28;1285;-69
2022/04/25 08:49:49;;;;;;;;;;;20.60;58.10;;;;;;5056484;28;907;-68
2022/04/25 08:52:14;;;;;;;;;;;20.60;58.10;;;;;;5022147;28;1486;-68
2022/04/25 08:54:40;;;;;;;;;;;20.60;58.10;;;;;;5038650;28;875;-68
2022/04/25 08:57:05;;;;;;;;;;;20.60;58.10;;;;;;5056330;28;998;-68
2022/04/25 08:59:31;;;;;;;;;;;20.60;58.20;;;;;;5056330;28;1204;-68
2022/04/25 09:01:57;;;;;;;;;;;20.60;58.20;;;;;;5056147;28;1890;-68
2022/04/25 09:04:23;;;;;;;;;;;20.50;58.10;;;;;;5056270;28;890;-69
2022/04/25 09:06:51;;;;;;;;;;;20.50;58.20;;;;;;5038606;28;942;-70
2022/04/25 09:09:16;;;;;;;;;;;20.50;58.20;;;;;;5055741;28;1179;-69
2022/04/25 09:14:26;;;;;;;;;;;20.50;58.30;;;;;;5056382;28;767;-69
2022/04/25 09:16:51;;;;;;;;;;;20.50;58.50;;;;;;5037964;28;1615;-69
2022/04/25 09:19:17;;;;;;;;;;;20.40;58.50;;;;;;5054492;28;1365;-69
2022/04/25 09:21:43;;;;;;;;;;;20.40;58.60;;;;;;5056105;28;1902;-70
2022/04/25 09:24:21;;;;;;;;;;;20.40;58.70;;;;;;5054777;28;926;-70
2022/04/25 09:26:47;;;;;;;;;;;20.40;58.70;;;;;;5055944;28;807;-70
2022/04/25 09:29:12;;;;;;;;;;;20.40;58.80;;;;;;5055661;28;1290;-70
2022/04/25 09:31:46;;;;;;;;;;;20.40;58.90;;;;;;5055792;28;859;-70
2022/04/25 09:34:14;;;;;;;;;;;20.40;58.90;;;;;;5055806;28;1515;-69
2022/04/25 09:36:49;;;;;;;;;;;20.40;59.00;;;;;;5055858;28;1412;-68
2022/04/25 09:39:27;;;;;;;;;;;20.40;59.00;;;;;;5055514;28;1649;-70
2022/04/25 09:41:53;;;;;;;;;;;20.30;59.00;;;;;;5054419;28;1957;-70
2022/04/25 09:44:18;;;;;;;;;;;20.30;59.10;;;;;;5055776;28;831;-69
2022/04/25 09:46:49;;;;;;;;;;;20.30;59.10;;;;;;5055721;28;836;-69
2022/04/25 09:49:18;;;;;;;;;;;20.30;59.10;;;;;;5053585;28;1212;-70
2022/04/25 09:51:59;;;;;;;;;;;20.30;59.20;;;;;;5053959;28;885;-70
2022/04/25 09:54:25;;;;;;;;;;;20.30;59.20;;;;;;5055416;28;811;-71
2022/04/25 09:56:50;;;;;;;;;;;20.30;59.20;;;;;;5055329;28;930;-72
2022/04/25 09:59:16;;;;;;;;;;;20.30;59.30;;;;;;5055167;28;1178;-72
2022/04/25 10:01:43;;;;;;;;;;;20.30;59.30;;;;;;5055359;28;1934;-71
2022/04/25 10:04:41;;;;;;;;;;;20.30;59.40;;;;;;5037746;28;1565;-70
2022/04/25 10:07:07;;;;;;;;;;;20.30;59.40;;;;;;5021155;28;1180;-70
2022/04/25 10:09:33;;;;;;;;;;;20.20;59.40;;;;;;5058640;22;2355;-73
2022/04/25 10:11:58;;;;;;;;;;;20.20;59.40;;;;;;5028395;28;1396;-71
2022/04/25 10:14:24;;;;;;;;;;;20.20;59.50;;;;;;5029099;28;1526;-72
2022/04/25 10:16:50;;;;;;;;;;;20.20;59.60;;;;;;5014325;28;1527;-72
2022/04/25 10:19:15;;;;;;;;;;;20.20;59.70;;;;;;5029811;28;1308;-73
2022/04/25 10:21:40;;;;;;;;;;;20.20;59.70;;;;;;5030036;28;1910;-73
2022/04/25 10:24:06;;;;;;;;;;;20.10;59.80;;;;;;5013660;28;1575;-72
2022/04/25 10:26:32;;;;;;;;;;;20.10;59.90;;;;;;5014944;28;1638;-73
2022/04/25 10:28:59;;;;;;;;;;;20.10;60.00;;;;;;5013914;28;1252;-71
2022/04/25 10:31:26;;;;;;;;;;;20.10;60.00;;;;;;5013698;28;910;-72
2022/04/25 10:33:55;;;;;;;;;;;20.10;60.10;;;;;;5001387;28;1579;-73
2022/04/25 10:36:36;;;;;;;;;;;20.10;60.20;;;;;;5008106;28;1750;-71
2022/04/25 10:39:14;;;;;;;;;;;20.10;60.20;;;;;;5028169;28;1227;-71
2022/04/25 10:44:24;;;;;;;;;;;20.00;60.20;;;;;;5012493;28;777;-70
2022/04/25 10:47:05;;;;;;;;;;;20.00;60.20;;;;;;5013374;28;1081;-70
2022/04/25 10:49:31;;;;;;;;;;;20.00;60.30;;;;;;5013216;28;1209;-70
2022/04/25 10:51:56;;;;;;;;;;;20.00;60.30;;;;;;5012269;28;1588;-70
2022/04/25 10:54:23;;;;;;;;;;;20.00;60.30;;;;;;5013235;28;1282;-70
2022/04/25 10:57:07;;;;;;;;;;;20.00;60.40;;;;;;5027940;28;1233;-72
2022/04/25 10:59:32;;;;;;;;;;;20.00;60.40;;;;;;5013277;28;1197;-72
2022/04/25 11:01:58;;;;;;;;;;;19.90;60.40;;;;;;5013283;28;1949;-72
2022/04/25 11:04:23;;;;;;;;;;;20.00;60.40;;;;;;5013255;28;784;-72
2022/04/25 11:07:09;;;;;;;;;;;19.90;60.40;;;;;;5001547;28;2260;-71
2022/04/25 11:09:41;;;;;;;;;;;19.90;60.50;;;;;;5001565;28;1484;-71
2022/04/25 11:12:07;;;;;;;;;;;19.90;60.50;;;;;;5000507;28;1294;-71
2022/04/25 11:14:32;;;;;;;;;;;19.90;60.50;;;;;;4992822;28;873;-71
2022/04/25 11:17:04;;;;;;;;;;;19.90;60.60;;;;;;4996093;28;1394;-71
2022/04/25 11:19:47;;;;;;;;;;;19.90;60.70;;;;;;5013502;28;1217;-71
2022/04/25 11:22:32;;;;;;;;;;;19.90;60.80;;;;;;5012532;28;1902;-71
2022/04/25 11:25:17;;;;;;;;;;;19.80;60.80;;;;;;5013824;28;808;-70
2022/04/25 11:28:02;;;;;;;;;;;19.90;60.80;;;;;;5012977;28;1045;-72
2022/04/25 11:30:27;;;;;;;;;;;19.80;60.80;;;;;;5013358;28;1208;-72
2022/04/25 11:32:52;;;;;;;;;;;19.80;60.80;;;;;;5013574;28;1494;-72
2022/04/25 11:35:22;;;;;;;;;;;19.80;60.80;;;;;;5012212;28;1215;-72
2022/04/25 11:37:48;;;;;;;;;;;19.80;60.90;;;;;;5002833;28;1327;-72
2022/04/25 11:40:14;;;;;;;;;;;19.80;60.90;;;;;;5011556;28;1281;-72
2022/04/25 11:42:40;;;;;;;;;;;19.80;60.90;;;;;;5009338;28;1970;-72
2022/04/25 11:45:06;;;;;;;;;;;19.80;60.90;;;;;;5011262;28;800;-72
2022/04/25 11:47:31;;;;;;;;;;;19.80;61.00;;;;;;5011977;28;895;-72
2022/04/25 11:49:57;;;;;;;;;;;19.80;61.00;;;;;;5010821;28;1759;-72
2022/04/25 11:52:23;;;;;;;;;;;19.80;61.10;;;;;;4994569;28;1163;-71
2022/04/25 11:54:49;;;;;;;;;;;19.80;61.10;;;;;;5010952;28;836;-72
2022/04/25 11:57:15;;;;;;;;;;;19.90;61.10;;;;;;5010497;28;831;-72
2022/04/25 11:59:40;;;;;;;;;;;19.80;61.10;;;;;;5012076;28;1204;-72
2022/04/25 12:02:06;;;;;;;;;;;19.80;61.10;;;;;;5007500;28;2182;-74
2022/04/25 12:04:34;;;;;;;;;;;19.80;61.20;;;;;;5010931;28;1548;-74
2022/04/25 12:06:59;;;;;;;;;;;19.80;58.00;;;;;;4991358;28;876;-74
2022/04/25 12:17:39;;;;;;;;;;;19.50;54.00;;;;;;4998378;28;1100;-74
2022/04/25 12:20:05;;;;;;;;;;;19.40;52.40;;;;;;5009798;28;1205;-74
2022/04/25 12:22:31;;;;;;;;;;;19.40;52.50;;;;;;5009923;28;1976;-74
2022/04/25 12:25:35;;;;;;;;;;;19.40;51.10;;;;;;4982240;28;1205;-74
2022/04/25 12:28:00;;;;;;;;;;;19.30;51.10;;;;;;4969812;28;1274;-74
2022/04/25 12:30:28;;;;;;;;;;;19.20;51.60;;;;;;4953978;28;1299;-74
2022/04/25 12:33:07;;;;;;;;;;;19.30;51.10;;;;;;4973790;28;1199;-74
2022/04/25 12:35:33;;;;;;;;;;;19.20;50.60;;;;;;4992049;28;1843;-75
2022/04/25 12:37:59;;;;;;;;;;;19.20;50.20;;;;;;5003594;28;1676;-74
2022/04/25 12:40:24;;;;;;;;;;;19.10;50.00;;;;;;5003832;28;2145;-74
2022/04/25 12:42:54;;;;;;;;;;;19.10;50.00;;;;;;5009029;28;1165;-74
2022/04/25 12:45:20;;;;;;;;;;;19.10;50.20;;;;;;5008747;28;1077;-74
2022/04/25 12:47:45;;;;;;;;;;;19.00;49.50;;;;;;4991963;28;1229;-75
2022/04/25 12:50:11;;;;;;;;;;;19.00;50.00;;;;;;4992420;28;1232;-74
2022/04/25 12:52:50;;;;;;;;;;;19.00;50.10;;;;;;4992414;28;887;-74
2022/04/25 12:55:16;;;;;;;;;;;19.00;50.50;;;;;;4993940;28;1206;-74
2022/04/25 12:57:53;;;;;;;;;;;19.00;50.00;;;;;;5010528;28;1096;-74
2022/04/25 13:00:19;;;;;;;;;;;18.90;50.30;;;;;;5010479;28;1264;-74
2022/04/25 13:02:44;;;;;;;;;;;18.90;50.10;;;;;;5012051;28;1887;-74
2022/04/25 13:05:13;;;;;;;;;;;18.90;49.90;;;;;;5012102;28;848;-74
2022/04/25 13:07:38;;;;;;;;;;;18.90;50.20;;;;;;5010865;28;800;-72
2022/04/25 13:10:05;;;;;;;;;;;18.90;50.20;;;;;;5011877;28;1200;-74
2022/04/25 13:12:32;;;;;;;;;;;18.90;50.40;;;;;;5010751;28;962;-75
2022/04/25 13:14:57;;;;;;;;;;;18.90;50.60;;;;;;5012310;28;867;-73
2022/04/25 13:17:22;;;;;;;;;;;18.90;50.70;;;;;;5010746;28;1111;-73
2022/04/25 13:19:48;;;;;;;;;;;18.90;50.90;;;;;;5012419;28;1296;-75
2022/04/25 13:22:13;;;;;;;;;;;18.90;51.20;;;;;;5004594;28;1922;-75
2022/04/25 13:24:39;;;;;;;;;;;18.90;51.40;;;;;;5010663;28;950;-75
2022/04/25 13:27:06;;;;;;;;;;;18.90;51.70;;;;;;5010436;28;1102;-74
2022/04/25 13:29:32;;;;;;;;;;;18.90;51.90;;;;;;4993019;28;1395;-74
2022/04/25 13:31:57;;;;;;;;;;;18.90;52.20;;;;;;4992132;28;796;-75
2022/04/25 13:34:23;;;;;;;;;;;18.90;52.40;;;;;;5011145;28;1115;-74
2022/04/25 13:36:49;;;;;;;;;;;18.90;52.60;;;;;;5006987;28;1131;-74
2022/04/25 13:39:14;;;;;;;;;;;18.90;52.80;;;;;;4995523;28;1550;-75
2022/04/25 13:41:40;;;;;;;;;;;18.90;53.00;;;;;;5013152;28;1922;-73
2022/04/25 13:44:06;;;;;;;;;;;18.90;53.10;;;;;;5014476;28;827;-74
2022/04/25 13:46:32;;;;;;;;;;;18.90;53.30;;;;;;5012432;28;867;-74
2022/04/25 13:48:57;;;;;;;;;;;18.90;53.40;;;;;;5012167;28;1219;-74
2022/04/25 13:51:23;;;;;;;;;;;18.90;53.60;;;;;;5014357;28;795;-74
2022/04/25 13:53:48;;;;;;;;;;;18.90;53.70;;;;;;5014213;28;816;-74
2022/04/25 13:56:14;;;;;;;;;;;18.90;53.90;;;;;;5012442;28;954;-74
2022/04/25 13:58:39;;;;;;;;;;;18.90;54.00;;;;;;5011931;28;1231;-74
2022/04/25 14:01:09;;;;;;;;;;;18.90;54.10;;;;;;5011689;28;1902;-74
2022/04/25 14:03:35;;;;;;;;;;;18.90;54.20;;;;;;5013113;28;847;-75
2022/04/25 14:06:00;;;;;;;;;;;18.90;54.30;;;;;;4996284;28;1177;-75
2022/04/25 14:08:26;;;;;;;;;;;18.90;54.50;;;;;;5020017;28;1302;-74
2022/04/25 14:10:52;;;;;;;;;;;18.90;54.60;;;;;;5013461;28;1231;-74
2022/04/25 14:13:18;;;;;;;;;;;18.90;54.70;;;;;;5014256;28;749;-72
2022/04/25 14:15:44;;;;;;;;;;;18.90;54.80;;;;;;5014815;28;851;-73
2022/04/25 14:18:09;;;;;;;;;;;18.90;54.90;;;;;;5002502;28;1277;-73
2022/04/25 14:20:35;;;;;;;;;;;18.90;55.00;;;;;;5026586;28;1970;-73
2022/04/25 14:23:01;;;;;;;;;;;18.90;55.10;;;;;;4995066;28;800;-73
2022/04/25 14:25:26;;;;;;;;;;;18.90;55.20;;;;;;5026576;28;1029;-73
2022/04/25 14:27:54;;;;;;;;;;;18.90;55.20;;;;;;4994755;28;1038;-74
2022/04/25 14:30:20;;;;;;;;;;;18.90;55.30;;;;;;4994762;28;1272;-73
2022/04/25 14:32:45;;;;;;;;;;;18.90;55.40;;;;;;5029933;28;1104;-73
2022/04/25 14:35:11;;;;;;;;;;;18.90;55.50;;;;;;5013390;28;1041;-73
2022/04/25 14:37:36;;;;;;;;;;;18.90;55.50;;;;;;5013935;28;1111;-73
2022/04/25 14:40:02;;;;;;;;;;;18.90;55.60;;;;;;5014038;28;1306;-73
2022/04/25 14:42:27;;;;;;;;;;;18.90;55.70;;;;;;5014434;28;1898;-73
2022/04/25 14:44:53;;;;;;;;;;;18.90;55.70;;;;;;5013775;28;863;-73
2022/04/25 14:47:18;;;;;;;;;;;18.90;55.80;;;;;;5013918;28;620;-72
2022/04/25 14:55:12;;;;;;;;;;;18.90;56.00;;;;;;5014132;28;663;-73
2022/04/25 14:57:38;;;;;;;;;;;18.90;56.10;;;;;;5013780;28;847;-73
2022/04/25 15:00:03;;;;;;;;;;;18.90;56.10;;;;;;5013876;28;1198;-71
2022/04/25 15:02:29;;;;;;;;;;;18.80;56.10;;;;;;5014433;28;1971;-71
2022/04/25 15:04:54;;;;;;;;;;;18.80;56.20;;;;;;5012381;28;1010;-72
2022/04/25 15:07:20;;;;;;;;;;;18.80;56.20;;;;;;5013662;28;903;-72
2022/04/25 15:09:46;;;;;;;;;;;18.80;56.30;;;;;;5013808;28;1330;-72
2022/04/25 15:12:12;;;;;;;;;;;18.80;56.30;;;;;;5013822;28;887;-72